Portada
METAR-TAF:

METAR-TAF

Aeroports :

Carcassona, França

latitud: 43-13N, longitud: 002-19E, altitud: 130 m

Observació

L'informe es va fer fa 30 minuts, a les 21:00 UTC
Vent 2 kt del Oest/Nord-Oest
Temperatura 18°C
Humitat 64%
Pressió 1019 hPa
Visibilitat 10 km o més
sense núvols per sota de 1500 mi sense presència de cumulonimbus.

METAR: LFMK 232100Z AUTO 30002KT CAVOK 18/11 Q1019

Hora: 23:30 (21:30 UTC)

Pronòstic

L'informe es va fer fa 7 hores i 30 minuts, a les 14:00 UTC
Pronòstic vàlid del 23 a les 15 UTC al 24 a les 15 UTC
Vent 12 kt del Oest/Nord-Oest
Visibilitat 10 km o més
sense núvols per sota de 1500 mi sense presència de cumulonimbus.
Temporalment
l' 23 a les 22 UTC al 24 a les 09 UTC
Vent 2 kt amb direcció variable

TAF: LFMK 231400Z 2315/2415 29012KT CAVOK TEMPO 2322/2409 VRB02KT

Observacions i pronòstics meteorològics de més de 4000 aeroports (METAR i TAF).

Les estacions disponibles són els punts grocs i vermells al mapa.

Posi el ratolí al punt desitjat per veure el nom de l'estació.

Feu clic per veure les observacions i els pronòstics meteorològics.

Per canviar el mapa: feu clic els botons verds amb una creu de color negre per apropar; al botó verd amb un guió per allunyar la imatge; o en les fletxes verdes per a mapes adjacents.


METAR-TAF: